• Join FlightAware (Why Join?)
  • Login
  • US Flag 
03:41PM EST


 

Airport Tracker/Info


-or-


 

Live Flight TrackerFlight Track Log ✈ CTL13 ✈ 04-Apr-2013 ✈ KBKL - KEYE

Flight Track Log - Related Links

Times and Time Zones

All times are in EDT time to prevent confusion due to time zone crossing. See the CTL13 flight status page for this flight to view local times or setup timezone preferences in your user account.

Time Position Orientation Groundspeed Altitude Reporting Facility
EDT Latitude Longitude Course Direction KTS MPH feet Rate Location/Type
06:32PM 41.5253 -81.6675 108° East 117 135 1,400  Level Cleveland Center
06:33PM 41.5153 -81.6258 108° East 121 139 3,000 660 Climbing Cleveland Center
06:34PM 41.4844 -81.6031 151° Southeast 163 188 3,000  Level Cleveland Center
06:35PM 41.4303 -81.5856 166° South 167 192 3,000  Level Cleveland Center
06:37PM 41.3781 -81.5819 177° South 168 193 3,000 60 Level Cleveland Center
06:37PM 41.3386 -81.5897 188° South 170 196 3,200 240 Climbing Cleveland Center
06:39PM 41.3089 -81.6392 231° Southwest 162 186 3,500 300 Climbing Cleveland Center
06:40PM 41.2833 -81.6883 235° Southwest 168 193 3,900 180 Climbing Cleveland Center
06:41PM 41.2536 -81.7542 239° Southwest 178 205 4,000 180 Climbing Cleveland Center
06:42PM 41.2281 -81.8033 235° Southwest 166 191 4,300 360 Climbing Cleveland Center
06:43PM 41.2003 -81.8497 231° Southwest 161 185 4,800 420 Climbing Cleveland Center
06:44PM 41.1769 -81.8964 236° Southwest 157 181 5,200 420 Climbing Cleveland Center
06:45PM 41.1533 -81.9453 237° Southwest 156 180 5,700 240 Climbing Cleveland Center
06:47PM 41.1250 -82.0466 250° West  Level Estimated
06:54PM 41.0147 -82.4362 250° West  Level Estimated
06:54PM 41.0167 -82.4039 248° West 151 174 8,000  Level Indianapolis Center
06:55PM 40.9989 -82.4918 249° West  Level Estimated
06:55PM 41.0025 -82.4564 250° West 150 173 8,000  Level Indianapolis Center
06:56PM 40.9951 -82.5471 265° West  Level FlightAware Approximate
06:56PM 40.9869 -82.5092 249° West 150 173 8,000  Level Indianapolis Center
06:57PM 40.9913 -82.6023 265° West  Level FlightAware Approximate
06:57PM 40.9725 -82.5614 250° West 150 173 8,000  Level Indianapolis Center
06:58PM 40.9875 -82.6576 265° West  Level FlightAware Approximate
06:58PM 40.9583 -82.6147 251° West 152 175 8,000  Level Indianapolis Center
06:59PM 40.9721 -82.7093 248° West  Level Estimated
06:59PM 40.9433 -82.6661 249° West 150 173 8,000  Level Indianapolis Center
07:00PM 40.9244 -82.7278 248° West 152 175 8,000  Level Indianapolis Center
07:01PM 40.9097 -82.7797 249° West 152 175 8,000  Level Indianapolis Center
07:02PM 40.8964 -82.8333 252° West 151 174 8,000  Level Indianapolis Center
07:03PM 40.8803 -82.8847 247° West 151 174 8,000  Level Indianapolis Center
07:04PM 40.8653 -82.9369 249° West 151 174 8,000  Level Indianapolis Center
07:05PM 40.8500 -82.9883 249° West 150 173 8,000  Level Indianapolis Center
07:06PM 40.8353 -83.0417 250° West 152 175 8,000  Level Indianapolis Center
07:07PM 40.8192 -83.0931 248° West 152 175 8,000  Level Indianapolis Center
07:08PM 40.7997 -83.1528 247° West 150 173 8,000  Level Indianapolis Center
07:09PM 40.7842 -83.2053 249° West 153 176 8,000  Level Indianapolis Center
07:10PM 40.7683 -83.2553 247° West 152 175 8,000  Level Indianapolis Center
07:11PM 40.7531 -83.3086 249° West 152 175 8,000  Level Indianapolis Center
07:12PM 40.7372 -83.3603 248° West 152 175 8,000  Level Indianapolis Center
07:13PM 40.7208 -83.4125 248° West 153 176 8,100  Climbing Indianapolis Center
07:14PM 40.7036 -83.4631 246° West 152 175 8,000 -60 Descending Indianapolis Center
07:15PM 40.6878 -83.5264 252° West 154 177 8,000  Level Indianapolis Center
07:17PM 40.6706 -83.5778 246° West 153 176 8,000  Level Indianapolis Center
07:18PM 40.6506 -83.6269 242° Southwest 152 175 8,000  Level Indianapolis Center
07:19PM 40.6317 -83.6764 243° Southwest 150 173 8,000  Level Indianapolis Center
07:19PM 40.6181 -83.7117 243° Southwest 153 176 8,000  Level Indianapolis Center
07:20PM 40.6139 -83.7283 252° West 153 176 8,000  Level Indianapolis Center
07:20PM 40.5997 -83.7617 241° Southwest 152 175 8,000  Level Indianapolis Center
07:21PM 40.5950 -83.7775 249° West 151 174 8,000  Level Indianapolis Center
07:21PM 40.5833 -83.8117 246° West 152 175 8,000  Level Indianapolis Center
07:22PM 40.5764 -83.8281 241° Southwest 152 175 8,000  Level Indianapolis Center
07:22PM 40.5628 -83.8614 242° Southwest 152 175 8,000  Level Indianapolis Center
07:23PM 40.5581 -83.8783 250° West 152 175 8,000  Level Indianapolis Center
07:23PM 40.5442 -83.9139 243° Southwest 152 175 8,000  Level Indianapolis Center
07:24PM 40.5372 -83.9372 249° West 151 174 8,000  Level Indianapolis Center
07:24PM 40.5258 -83.9636 240° Southwest 153 176 8,000  Level Indianapolis Center
07:25PM 40.5175 -83.9889 247° West 155 178 8,000  Level Indianapolis Center
07:25PM 40.5072 -84.0161 244° Southwest 152 175 8,000  Level Indianapolis Center
07:26PM 40.4992 -84.0389 245° Southwest 152 175 8,000  Level Indianapolis Center
07:26PM 40.4911 -84.0633 247° West 151 174 8,000  Level Indianapolis Center
07:27PM 40.4811 -84.0897 244° Southwest 152 175 8,000  Level Indianapolis Center
07:27PM 40.4703 -84.1128 238° Southwest 153 176 8,000  Level Indianapolis Center
07:28PM 40.4608 -84.1389 245° Southwest 152 175 8,000  Level Indianapolis Center
07:28PM 40.4475 -84.1644 236° Southwest 154 177 8,000  Level Indianapolis Center
07:29PM 40.4392 -84.1883 245° Southwest 153 176 8,000  Level Indianapolis Center
07:29PM 40.4269 -84.2139 238° Southwest 154 177 8,000  Level Indianapolis Center
07:30PM 40.4194 -84.2389 248° West 154 177 8,000  Level Indianapolis Center
07:30PM 40.4081 -84.2661 241° Southwest 155 178 8,000  Level Indianapolis Center
07:31PM 40.3994 -84.2894 244° Southwest 155 178 8,000  Level Indianapolis Center
07:31PM 40.3894 -84.3158 244° Southwest 152 175 8,000  Level Indianapolis Center
07:32PM 40.3808 -84.3394 244° Southwest 153 176 8,000  Level Indianapolis Center
07:32PM 40.3708 -84.3653 243° Southwest 153 176 8,000  Level Indianapolis Center
07:33PM 40.3581 -84.3981 243° Southwest 153 176 8,000  Level Indianapolis Center
07:33PM 40.3528 -84.4094 239° Southwest 153 176 8,000  Level Indianapolis Center
07:34PM 40.3411 -84.4497 249° West 153 176 8,000  Level Indianapolis Center
07:34PM 40.3333 -84.4697 243° Southwest 154 177 8,000  Level Indianapolis Center
07:35PM 40.3208 -84.5003 242° Southwest 155 178 8,000  Level Indianapolis Center
07:35PM 40.3125 -84.5189 240° Southwest 155 178 8,000  Level Indianapolis Center
07:36PM 40.3022 -84.5506 247° West 153 176 8,000  Level Indianapolis Center
07:36PM 40.2956 -84.5714 247° West 155 178 8,000  Level Indianapolis Center
07:37PM 40.2847 -84.6031 246° West 155 178 8,000  Level Indianapolis Center
07:38PM 40.2631 -84.6525 240° Southwest 154 177 8,000  Level Indianapolis Center
07:39PM 40.2442 -84.7039 244° Southwest 155 178 8,000  Level Indianapolis Center
07:40PM 40.2242 -84.7533 242° Southwest 154 177 8,000  Level Indianapolis Center
07:41PM 40.2036 -84.8036 242° Southwest 155 178 8,000  Level Indianapolis Center
07:42PM 40.1806 -84.8614 242° Southwest 154 177 8,000  Level Indianapolis Center
07:43PM 40.1622 -84.9089 243° Southwest 154 177 8,000  Level Indianapolis Center
07:44PM 40.1428 -84.9592 243° Southwest 155 178 8,000  Level Indianapolis Center
07:45PM 40.1225 -85.0094 242° Southwest 155 178 8,000  Level Indianapolis Center
07:46PM 40.1014 -85.0603 242° Southwest 157 181 8,000  Level Indianapolis Center
07:47PM 40.0836 -85.1117 246° West 154 177 8,000  Level Indianapolis Center
07:48PM 40.0608 -85.1711 243° Southwest 156 180 8,000  Level Indianapolis Center
07:49PM 40.0514 -85.2250 257° West 152 175 8,000  Level Indianapolis Center
07:50PM 40.0481 -85.2811 266° West 153 176 8,000  Level Indianapolis Center
07:52PM 40.0425 -85.3356 262° West 150 173 8,000  Level Indianapolis Center
07:53PM 40.0403 -85.3906 267° West 151 174 8,000  Level Indianapolis Center
07:54PM 40.0350 -85.4461 263° West 152 175 8,000 -300 Level Indianapolis Center
07:55PM 40.0311 -85.5056 265° West 160 184 7,400 -600 Descending Indianapolis Center
07:56PM 40.0261 -85.5667 264° West 166 191 6,800 -720 Descending Indianapolis Center
07:57PM 40.0214 -85.6297 264° West 170 196 6,000 -660 Descending Indianapolis Center
07:58PM 40.0161 -85.7039 265° West 173 199 5,500 -600 Descending Indianapolis Center
07:59PM 40.0111 -85.7683 264° West 175 201 4,800 -660 Descending Indianapolis Center
08:00PM 40.0081 -85.8347 267° West 179 206 4,200 -600 Descending Indianapolis Center
08:01PM 40.0039 -85.9000 265° West 180 207 3,600 -540 Descending Indianapolis Center
08:02PM 39.9983 -85.9633 263° West 177 204 3,100 -300 Descending Indianapolis Center
08:03PM 39.9744 -86.0169 240° Southwest 174 200 3,000 -60 Descending Indianapolis Center
08:04PM 39.9503 -86.0672 238° Southwest 167 192 3,000 -60 Level Indianapolis Center
08:05PM 39.9261 -86.1164 237° Southwest 163 188 2,900 -120 Descending Indianapolis Center